createdAt,value
2019-02-07T00:00:00.811Z,5.89
2019-02-07T00:01:00.818Z,5.86
2019-02-07T00:02:00.810Z,5.91
2019-02-07T00:03:00.780Z,5.83
2019-02-07T00:04:00.766Z,5.93
2019-02-07T00:05:00.755Z,5.89
2019-02-07T00:06:00.744Z,5.83
2019-02-07T00:07:00.778Z,5.91
2019-02-07T00:08:00.723Z,5.82
2019-02-07T00:09:00.711Z,5.92
2019-02-07T00:10:00.699Z,5.83
2019-02-07T00:11:00.689Z,5.85
2019-02-07T00:12:00.704Z,5.78
2019-02-07T00:13:00.684Z,5.81
2019-02-07T00:14:00.654Z,5.86
2019-02-07T00:15:00.643Z,5.96
2019-02-07T00:16:00.635Z,5.88
2019-02-07T00:17:00.643Z,5.83
2019-02-07T00:18:00.609Z,5.85
2019-02-07T00:19:00.620Z,5.88
2019-02-07T00:20:00.587Z,5.86
2019-02-07T00:21:00.576Z,5.78
2019-02-07T00:22:00.587Z,5.82
2019-02-07T00:23:00.553Z,5.75
2019-02-07T00:24:00.545Z,5.67
2019-02-07T00:25:00.554Z,5.67
2019-02-07T00:26:00.520Z,5.64
2019-02-07T00:27:00.547Z,5.59
2019-02-07T00:28:00.498Z,5.57
2019-02-07T00:29:00.489Z,5.63
2019-02-07T00:30:00.476Z,5.63
2019-02-07T00:31:00.480Z,5.68
2019-02-07T00:32:00.476Z,5.78
2019-02-07T00:33:00.442Z,5.81
2019-02-07T00:34:00.431Z,5.67
2019-02-07T00:35:00.421Z,5.67
2019-02-07T00:36:00.410Z,5.60
2019-02-07T00:37:00.451Z,5.55
2019-02-07T00:38:00.386Z,5.53
2019-02-07T00:39:00.375Z,5.63
2019-02-07T00:40:00.364Z,5.66
2019-02-07T00:41:00.353Z,5.75
2019-02-07T00:42:00.366Z,5.81
2019-02-07T00:43:00.352Z,5.68
2019-02-07T00:44:00.321Z,5.68
2019-02-07T00:45:00.332Z,5.73
2019-02-07T00:46:00.297Z,5.66
2019-02-07T00:47:00.285Z,5.56
2019-02-07T00:48:00.297Z,5.70
2019-02-07T00:49:00.308Z,5.83
2019-02-07T00:50:00.252Z,5.77
2019-02-07T00:51:00.241Z,6.13
2019-02-07T00:52:00.229Z,5.95
2019-02-07T00:53:00.241Z,5.85
2019-02-07T00:54:00.208Z,5.70
2019-02-07T00:55:00.332Z,5.53
2019-02-07T00:56:00.186Z,5.56
2019-02-07T00:57:00.175Z,5.43
2019-02-07T00:58:00.188Z,5.38
2019-02-07T00:59:00.151Z,5.37
2019-02-07T01:00:00.326Z,5.31
2019-02-07T01:01:00.147Z,5.31
2019-02-07T01:02:00.118Z,5.10
2019-02-07T01:03:00.128Z,5.10
2019-02-07T01:04:00.093Z,5.01
2019-02-07T01:05:00.186Z,4.92
2019-02-07T01:06:00.075Z,5.04
2019-02-07T01:07:00.076Z,4.99
2019-02-07T01:08:00.071Z,4.98
2019-02-07T01:09:00.039Z,5.07
2019-02-07T01:10:00.029Z,5.04
2019-02-07T01:11:00.018Z,5.10
2019-02-07T01:12:00.007Z,5.10
2019-02-07T01:13:00.059Z,5.07
2019-02-07T01:13:59.985Z,5.17
2019-02-07T01:15:02.023Z,5.17
2019-02-07T01:15:59.961Z,5.19
2019-02-07T01:16:59.953Z,5.30
2019-02-07T01:17:59.963Z,5.30
2019-02-07T01:18:59.951Z,5.37
2019-02-07T01:19:59.916Z,5.38
2019-02-07T01:20:59.908Z,5.45
2019-02-07T01:21:59.896Z,5.37
2019-02-07T01:22:59.909Z,5.30
2019-02-07T01:23:59.873Z,5.28
2019-02-07T01:24:59.888Z,5.19
2019-02-07T01:25:59.851Z,5.25
2019-02-07T01:26:59.840Z,5.19
2019-02-07T01:27:59.851Z,5.14
2019-02-07T01:28:59.820Z,5.14
2019-02-07T01:29:59.809Z,5.10
2019-02-07T01:30:59.816Z,5.09
2019-02-07T01:31:59.784Z,5.09
2019-02-07T01:32:59.795Z,5.12
2019-02-07T01:33:59.763Z,5.19
2019-02-07T01:34:59.752Z,5.43
2019-02-07T01:35:59.740Z,5.38
2019-02-07T01:36:59.740Z,5.32
2019-02-07T01:37:59.744Z,5.31
2019-02-07T01:38:59.709Z,5.28
2019-02-07T01:39:59.697Z,5.19
2019-02-07T01:40:59.688Z,5.19
2019-02-07T01:41:59.675Z,5.37
2019-02-07T01:42:59.713Z,5.32
2019-02-07T01:43:59.651Z,5.32
2019-02-07T01:44:59.642Z,5.30
2019-02-07T01:45:59.631Z,5.23
2019-02-07T01:46:59.641Z,5.14
2019-02-07T01:47:59.610Z,5.34
2019-02-07T01:48:59.647Z,5.31
2019-02-07T01:49:59.588Z,5.30
2019-02-07T01:50:59.575Z,5.28
2019-02-07T01:51:59.567Z,5.27
2019-02-07T01:52:59.553Z,5.40
2019-02-07T01:53:59.564Z,5.32
2019-02-07T01:54:59.550Z,5.34
2019-02-07T01:55:59.519Z,5.41
2019-02-07T01:56:59.508Z,5.40
2019-02-07T01:57:59.496Z,5.40
2019-02-07T01:58:59.507Z,5.49
2019-02-07T01:59:59.477Z,5.53
2019-02-07T02:00:59.487Z,5.49
2019-02-07T02:01:59.454Z,5.49
2019-02-07T02:02:59.446Z,5.50
2019-02-07T02:03:59.453Z,5.59
2019-02-07T02:04:59.421Z,5.60
2019-02-07T02:05:59.408Z,5.60
2019-02-07T02:06:59.411Z,5.60
2019-02-07T02:07:59.394Z,5.63
2019-02-07T02:08:59.398Z,5.68
2019-02-07T02:09:59.363Z,5.67
2019-02-07T02:10:59.352Z,5.68
2019-02-07T02:11:59.346Z,5.70
2019-02-07T02:12:59.351Z,5.68
2019-02-07T02:13:59.342Z,5.68
2019-02-07T02:14:59.308Z,5.68
2019-02-07T02:15:59.299Z,5.66
2019-02-07T02:16:59.287Z,5.70
2019-02-07T02:17:59.279Z,5.70
2019-02-07T02:18:59.317Z,5.67
2019-02-07T02:19:59.253Z,5.66
2019-02-07T02:20:59.242Z,5.66
2019-02-07T02:21:59.232Z,5.56
2019-02-07T02:22:59.226Z,5.52
2019-02-07T02:23:59.234Z,5.53
2019-02-07T02:24:59.217Z,5.53
2019-02-07T02:25:59.188Z,5.55
2019-02-07T02:26:59.176Z,5.56
2019-02-07T02:27:59.165Z,5.49
2019-02-07T02:28:59.180Z,5.50
2019-02-07T02:29:59.145Z,5.48
2019-02-07T02:30:59.159Z,5.34
2019-02-07T02:31:59.122Z,5.28
2019-02-07T02:32:59.110Z,5.30
2019-02-07T02:33:59.123Z,5.38
2019-02-07T02:34:59.087Z,5.32
2019-02-07T02:35:59.080Z,5.20
2019-02-07T02:36:59.079Z,5.27
2019-02-07T02:37:59.054Z,5.30
2019-02-07T02:38:59.067Z,5.40
2019-02-07T02:39:59.032Z,5.25
2019-02-07T02:40:59.023Z,5.27
2019-02-07T02:41:59.011Z,5.23
2019-02-07T02:42:59.021Z,5.30
2019-02-07T02:43:59.009Z,5.38
2019-02-07T02:44:59.041Z,5.43
2019-02-07T02:45:58.967Z,5.48
2019-02-07T02:46:58.958Z,5.48
2019-02-07T02:47:58.955Z,5.63
2019-02-07T02:48:58.980Z,5.59
2019-02-07T02:49:58.921Z,5.53
2019-02-07T02:50:58.913Z,5.66
2019-02-07T02:51:58.901Z,5.71
2019-02-07T02:53:05.927Z,5.70
2019-02-07T02:54:05.934Z,5.60
2019-02-07T02:55:05.896Z,5.55
2019-02-07T02:56:05.886Z,5.52
2019-02-07T02:56:58.850Z,5.67
2019-02-07T02:57:58.838Z,5.57
2019-02-07T02:58:58.872Z,5.56
2019-02-07T02:59:58.836Z,5.56
2019-02-07T03:00:58.809Z,5.59
2019-02-07T03:01:58.804Z,5.57
2019-02-07T03:02:58.811Z,5.60
2019-02-07T03:03:58.769Z,5.50
2019-02-07T03:04:58.781Z,5.57
2019-02-07T03:05:58.748Z,5.56
2019-02-07T03:06:58.740Z,5.59
2019-02-07T03:07:58.758Z,5.40
2019-02-07T03:08:58.714Z,5.50
2019-02-07T03:09:58.726Z,5.40
2019-02-07T03:10:58.692Z,5.52
2019-02-07T03:11:58.679Z,5.37
2019-02-07T03:12:58.668Z,5.43
2019-02-07T03:13:58.684Z,5.50
2019-02-07T03:14:58.670Z,5.53
2019-02-07T03:15:58.635Z,5.56
2019-02-07T03:16:58.631Z,5.59
2019-02-07T03:17:58.615Z,5.63
2019-02-07T03:18:58.601Z,5.60
2019-02-07T03:19:58.634Z,5.60
2019-02-07T03:20:58.579Z,5.68
2019-02-07T03:21:58.569Z,5.64
2019-02-07T03:22:58.557Z,5.60
2019-02-07T03:23:58.582Z,5.50
2019-02-07T03:24:58.556Z,5.49
2019-02-07T03:25:58.569Z,5.53
2019-02-07T03:26:58.512Z,5.52
2019-02-07T03:27:58.504Z,5.60
2019-02-07T03:28:58.497Z,5.57
2019-02-07T03:29:58.480Z,5.56
2019-02-07T03:30:58.492Z,5.40
2019-02-07T03:31:58.507Z,5.37
2019-02-07T03:32:58.456Z,5.32
2019-02-07T03:33:58.436Z,5.34
2019-02-07T03:34:58.425Z,5.48
2019-02-07T03:35:58.437Z,5.55
2019-02-07T03:36:58.404Z,5.78
2019-02-07T03:37:58.437Z,5.77
2019-02-07T03:38:58.382Z,5.75
2019-02-07T03:39:58.374Z,5.70
2019-02-07T03:40:58.381Z,5.73
2019-02-07T03:41:58.349Z,5.82
2019-02-07T03:42:58.352Z,5.95
2019-02-07T03:43:58.341Z,5.95
2019-02-07T03:44:58.312Z,5.85
2019-02-07T03:46:02.971Z,5.83
2019-02-07T03:46:58.288Z,5.93
2019-02-07T03:47:58.277Z,5.85
2019-02-07T03:48:58.275Z,5.85
2019-02-07T03:49:58.285Z,5.86
2019-02-07T03:50:58.270Z,5.95
2019-02-07T03:51:58.236Z,5.95
2019-02-07T03:52:58.221Z,5.86
2019-02-07T03:53:58.209Z,6.01
2019-02-07T03:54:58.202Z,5.95
2019-02-07T03:55:58.227Z,5.95
2019-02-07T03:56:58.176Z,5.92
2019-02-07T03:57:58.167Z,5.96
2019-02-07T03:58:58.156Z,5.78
2019-02-07T03:59:58.143Z,5.92
2019-02-07T04:00:58.160Z,5.88
2019-02-07T04:01:58.143Z,5.83
2019-02-07T04:02:58.109Z,5.88
2019-02-07T04:03:58.099Z,5.82
2019-02-07T04:04:58.087Z,5.85
2019-02-07T04:05:58.096Z,5.85
2019-02-07T04:06:58.085Z,5.85
2019-02-07T04:07:58.069Z,5.95
2019-02-07T04:08:58.041Z,6.19
2019-02-07T04:09:58.031Z,6.16
2019-02-07T04:10:58.019Z,6.18
2019-02-07T04:11:58.030Z,6.11
2019-02-07T04:12:57.996Z,5.93
2019-02-07T04:13:58.010Z,5.98
2019-02-07T04:14:57.976Z,5.91
2019-02-07T04:15:57.960Z,5.86
2019-02-07T04:16:57.974Z,5.93
2019-02-07T04:17:57.939Z,5.93
2019-02-07T04:18:57.930Z,5.96
2019-02-07T04:19:57.942Z,5.93
2019-02-07T04:20:57.913Z,5.93
2019-02-07T04:21:57.917Z,6.09
2019-02-07T04:22:57.883Z,6.11
2019-02-07T04:23:57.964Z,6.16
2019-02-07T04:24:57.862Z,6.21
2019-02-07T04:25:57.911Z,6.14
2019-02-07T04:26:57.860Z,6.18
2019-02-07T04:27:57.828Z,6.22
2019-02-07T04:28:57.817Z,6.14
2019-02-07T04:29:57.805Z,6.48
2019-02-07T04:30:57.800Z,6.50
2019-02-07T04:31:57.831Z,6.91
2019-02-07T04:32:57.769Z,6.87
2019-02-07T04:33:57.758Z,6.71
2019-02-07T04:34:57.748Z,6.76
2019-02-07T04:35:57.739Z,6.77
2019-02-07T04:36:57.749Z,6.68
2019-02-07T04:37:57.767Z,6.65
2019-02-07T04:38:57.703Z,6.50
2019-02-07T04:39:57.691Z,6.58
2019-02-07T04:40:57.680Z,6.51
2019-02-07T04:41:57.698Z,6.59
2019-02-07T04:42:57.663Z,6.63
2019-02-07T04:43:57.672Z,6.56
2019-02-07T04:44:57.634Z,6.54
2019-02-07T04:45:57.624Z,6.59
2019-02-07T04:46:57.613Z,6.50
2019-02-07T04:47:57.630Z,6.53
2019-02-07T04:48:57.591Z,6.48
2019-02-07T04:49:57.612Z,6.59
2019-02-07T04:50:57.570Z,6.66
2019-02-07T04:51:57.556Z,6.50
2019-02-07T04:52:59.190Z,6.46
2019-02-07T04:53:57.534Z,6.51
2019-02-07T04:54:57.525Z,6.62
2019-02-07T04:55:57.529Z,6.53
2019-02-07T04:56:57.500Z,6.61
2019-02-07T04:57:57.511Z,6.68
2019-02-07T04:58:57.478Z,6.56
2019-02-07T04:59:57.469Z,6.53
2019-02-07T05:00:57.456Z,6.54
2019-02-07T05:01:57.477Z,6.54
2019-02-07T05:02:57.458Z,6.53
2019-02-07T05:03:57.423Z,6.80
2019-02-07T05:04:57.411Z,6.83
2019-02-07T05:05:57.401Z,6.87
2019-02-07T05:06:57.389Z,6.76
2019-02-07T05:07:57.424Z,6.69
2019-02-07T05:08:57.370Z,6.94
2019-02-07T05:09:57.358Z,6.86
2019-02-07T05:10:57.345Z,6.80
2019-02-07T05:11:57.333Z,6.86
2019-02-07T05:12:57.346Z,6.90
2019-02-07T05:13:57.331Z,6.84
2019-02-07T05:14:57.303Z,6.84
2019-02-07T05:15:57.289Z,6.91
2019-02-07T05:16:57.278Z,6.84
2019-02-07T05:17:57.290Z,6.80
2019-02-07T05:18:57.256Z,6.72
2019-02-07T05:19:57.270Z,6.66
2019-02-07T05:20:57.301Z,6.63
2019-02-07T05:21:57.222Z,6.63
2019-02-07T05:22:57.233Z,6.73
2019-02-07T05:23:57.199Z,6.69
2019-02-07T05:24:57.191Z,6.69
2019-02-07T05:25:57.193Z,6.68
2019-02-07T05:26:57.200Z,6.76
2019-02-07T05:27:57.178Z,6.95
2019-02-07T05:28:57.148Z,6.98
2019-02-07T05:29:57.134Z,6.86
2019-02-07T05:30:57.127Z,6.87
2019-02-07T05:31:57.112Z,6.87
2019-02-07T05:32:57.150Z,6.95
2019-02-07T05:33:57.089Z,7.12
2019-02-07T05:34:57.078Z,7.09
2019-02-07T05:35:57.067Z,7.22
2019-02-07T05:36:57.056Z,7.26
2019-02-07T05:37:57.067Z,7.29
2019-02-07T05:38:57.060Z,7.37
2019-02-07T05:39:57.048Z,7.45
2019-02-07T05:40:57.011Z,7.44
2019-02-07T05:41:57.004Z,7.45
2019-02-07T05:42:56.991Z,7.38
2019-02-07T05:43:57.001Z,7.29
2019-02-07T05:44:56.984Z,7.27
2019-02-07T05:45:56.956Z,7.20
2019-02-07T05:46:56.945Z,7.29
2019-02-07T05:47:56.934Z,7.26
2019-02-07T05:48:56.945Z,7.32
2019-02-07T05:49:56.912Z,7.29
2019-02-07T05:50:56.924Z,7.19
2019-02-07T05:51:56.890Z,7.07
2019-02-07T05:52:56.884Z,7.20
2019-02-07T05:53:56.891Z,7.22
2019-02-07T05:54:56.855Z,7.13
2019-02-07T05:55:56.929Z,7.17
2019-02-07T05:56:56.853Z,7.23
2019-02-07T05:57:56.821Z,7.23
2019-02-07T05:58:59.141Z,7.15
2019-02-07T05:59:56.802Z,7.17
2019-02-07T06:00:56.788Z,7.23
2019-02-07T06:01:56.815Z,7.13
2019-02-07T06:02:56.778Z,7.17
2019-02-07T06:03:56.783Z,7.13
2019-02-07T06:04:56.744Z,7.19
2019-02-07T06:05:56.736Z,7.15
2019-02-07T06:06:56.723Z,7.20
2019-02-07T06:07:56.726Z,7.17
2019-02-07T06:08:56.723Z,7.31
2019-02-07T06:09:56.691Z,7.26
2019-02-07T06:10:56.680Z,7.34
2019-02-07T06:11:56.667Z,7.34
2019-02-07T06:12:56.657Z,7.31
2019-02-07T06:13:56.694Z,7.26
2019-02-07T06:14:56.634Z,7.27
2019-02-07T06:15:57.084Z,7.22
2019-02-07T06:17:02.736Z,7.22
2019-02-07T06:17:57.599Z,7.35
2019-02-07T06:18:56.614Z,7.34
2019-02-07T06:19:56.612Z,7.44
2019-02-07T06:20:56.567Z,7.56
2019-02-07T06:21:56.555Z,7.44
2019-02-07T06:22:56.545Z,7.49
2019-02-07T06:23:56.558Z,7.52
2019-02-07T06:24:56.525Z,7.47
2019-02-07T06:25:56.540Z,7.55
2019-02-07T06:26:56.500Z,7.50
2019-02-07T06:27:56.495Z,7.42
2019-02-07T06:28:57.623Z,7.32
2019-02-07T06:29:56.467Z,7.40
2019-02-07T06:30:56.457Z,7.31
2019-02-07T06:31:56.470Z,7.32
2019-02-07T06:32:56.433Z,7.32
2019-02-07T06:33:56.455Z,7.41
2019-02-07T06:34:56.411Z,7.42
2019-02-07T06:35:56.404Z,7.44
2019-02-07T06:36:56.412Z,7.47
2019-02-07T06:37:56.410Z,7.42
2019-02-07T06:38:56.368Z,7.58
2019-02-07T06:39:56.379Z,7.49
2019-02-07T06:40:56.362Z,7.59
2019-02-07T06:41:56.336Z,7.44
2019-02-07T06:42:56.328Z,7.53
2019-02-07T06:43:56.334Z,7.71
2019-02-07T06:44:56.325Z,7.72
2019-02-07T06:45:56.293Z,7.71
2019-02-07T06:46:56.302Z,7.72
2019-02-07T06:47:56.280Z,7.72
2019-02-07T06:48:56.258Z,7.62
2019-02-07T06:49:56.306Z,7.67
2019-02-07T06:50:56.238Z,7.71
2019-02-07T06:51:56.255Z,7.72
2019-02-07T06:52:56.215Z,7.63
2019-02-07T06:53:56.209Z,7.56
2019-02-07T06:54:56.235Z,7.56
2019-02-07T06:55:56.179Z,7.63
2019-02-07T06:56:56.172Z,7.55
2019-02-07T06:57:56.159Z,7.58
2019-02-07T06:58:56.176Z,7.52
2019-02-07T06:59:56.179Z,7.56
2019-02-07T07:00:56.127Z,7.52
2019-02-07T07:01:56.114Z,7.42
2019-02-07T07:02:56.122Z,7.42
2019-02-07T07:03:57.759Z,7.44
2019-02-07T07:04:56.104Z,7.49
2019-02-07T07:05:56.113Z,7.41
2019-02-07T07:06:56.056Z,7.37
2019-02-07T07:07:56.048Z,7.41
2019-02-07T07:08:56.037Z,7.47
2019-02-07T07:09:56.050Z,7.41
2019-02-07T07:10:56.061Z,7.45
2019-02-07T07:11:56.002Z,7.50
2019-02-07T07:12:55.996Z,7.56
2019-02-07T07:13:55.980Z,7.42
2019-02-07T07:14:56.115Z,7.49
2019-02-07T07:15:55.967Z,7.49
2019-02-07T07:16:55.984Z,7.44
2019-02-07T07:17:55.938Z,7.44
2019-02-07T07:18:55.925Z,7.38
2019-02-07T07:19:55.938Z,7.40
2019-02-07T07:20:55.902Z,7.32
2019-02-07T07:21:55.894Z,7.37
2019-02-07T07:22:55.906Z,7.40
2019-02-07T07:23:55.869Z,7.38
2019-02-07T07:24:55.881Z,7.38
2019-02-07T07:25:55.846Z,7.41
2019-02-07T07:26:55.836Z,7.41
2019-02-07T07:27:55.848Z,7.35
2019-02-07T07:28:55.834Z,7.35
2019-02-07T07:29:55.803Z,7.41
2019-02-07T07:30:57.531Z,7.34
2019-02-07T07:31:55.782Z,7.45
2019-02-07T07:32:55.798Z,7.44
2019-02-07T07:33:55.760Z,7.44
2019-02-07T07:34:55.750Z,7.53
2019-02-07T07:35:55.792Z,7.53
2019-02-07T07:36:55.726Z,7.52
2019-02-07T07:37:55.714Z,7.63
2019-02-07T07:38:55.709Z,7.71
2019-02-07T07:39:55.692Z,7.69
2019-02-07T07:40:55.704Z,7.62
2019-02-07T07:41:55.698Z,7.67
2019-02-07T07:42:55.660Z,7.56
2019-02-07T07:43:55.650Z,7.69
2019-02-07T07:44:55.638Z,7.72
2019-02-07T07:45:55.654Z,7.75
2019-02-07T07:46:55.621Z,7.78
2019-02-07T07:47:55.646Z,7.82
2019-02-07T07:48:55.617Z,7.82
2019-02-07T07:49:55.581Z,7.79
2019-02-07T07:50:55.600Z,7.75
2019-02-07T07:51:55.564Z,7.74
2019-02-07T07:52:55.550Z,7.78
2019-02-07T07:53:55.567Z,7.77
2019-02-07T07:54:55.527Z,7.79
2019-02-07T07:55:55.543Z,7.79
2019-02-07T07:56:55.506Z,7.75
2019-02-07T07:57:55.493Z,7.74
2019-02-07T07:58:55.480Z,7.79
2019-02-07T07:59:55.499Z,7.75
2019-02-07T08:00:55.484Z,7.74
2019-02-07T08:01:55.449Z,7.85
2019-02-07T08:02:55.437Z,7.87
2019-02-07T08:03:55.432Z,7.93
2019-02-07T08:04:55.414Z,7.85
2019-02-07T08:05:55.460Z,7.78
2019-02-07T08:06:55.402Z,7.81
2019-02-07T08:07:55.383Z,7.78
2019-02-07T08:08:55.375Z,7.82
2019-02-07T08:09:55.359Z,7.84
2019-02-07T08:10:55.372Z,7.75
2019-02-07T08:11:55.361Z,7.78
2019-02-07T08:12:55.330Z,7.85
2019-02-07T08:13:55.318Z,7.87
2019-02-07T08:14:55.308Z,7.92
2019-02-07T08:15:55.325Z,8.00
2019-02-07T08:16:55.280Z,7.90
2019-02-07T08:17:55.304Z,7.89
2019-02-07T08:18:55.260Z,7.93
2019-02-07T08:19:55.283Z,7.85
2019-02-07T08:20:55.240Z,7.96
2019-02-07T08:21:55.248Z,7.94
2019-02-07T08:22:55.216Z,7.89
2019-02-07T08:23:55.250Z,7.90
2019-02-07T08:24:55.231Z,7.90
2019-02-07T08:25:55.186Z,8.04
2019-02-07T08:26:55.194Z,8.04
2019-02-07T08:27:55.162Z,8.15
2019-02-07T08:28:55.151Z,8.07
2019-02-07T08:29:55.166Z,8.12
2019-02-07T08:30:55.140Z,8.02
2019-02-07T08:31:55.138Z,7.99
2019-02-07T08:32:55.197Z,7.99
2019-02-07T08:33:55.094Z,7.94
2019-02-07T08:34:55.081Z,7.92
2019-02-07T08:35:55.071Z,7.89
2019-02-07T08:36:55.116Z,7.90
2019-02-07T08:37:57.991Z,7.96
2019-02-07T08:38:55.039Z,7.90
2019-02-07T08:39:55.072Z,7.90
2019-02-07T08:40:55.017Z,7.99
2019-02-07T08:41:55.030Z,7.90
2019-02-07T08:42:55.096Z,7.96
2019-02-07T08:43:54.984Z,7.96
2019-02-07T08:44:55.275Z,7.99
2019-02-07T08:45:55.040Z,7.84
2019-02-07T08:46:54.975Z,7.87
2019-02-07T08:47:58.669Z,7.77
2019-02-07T08:48:54.954Z,7.89
2019-02-07T08:49:55.072Z,8.14
2019-02-07T08:50:54.905Z,8.07
2019-02-07T08:51:54.923Z,7.99
2019-02-07T08:52:54.885Z,8.02
2019-02-07T08:53:54.871Z,8.07
2019-02-07T08:54:54.896Z,8.12
2019-02-07T08:55:54.856Z,8.17
2019-02-07T08:56:54.871Z,8.08
2019-02-07T08:57:54.827Z,8.12
2019-02-07T08:58:54.815Z,8.14
2019-02-07T08:59:55.005Z,8.14
2019-02-07T09:00:54.795Z,8.11
2019-02-07T09:01:56.727Z,8.12
2019-02-07T09:02:54.918Z,8.18
2019-02-07T09:03:55.030Z,8.14
2019-02-07T09:04:54.752Z,8.21
2019-02-07T09:05:54.739Z,8.32
2019-02-07T09:06:54.752Z,8.17
2019-02-07T09:07:54.716Z,8.03
2019-02-07T09:08:56.330Z,7.84
2019-02-07T09:09:54.698Z,8.00
2019-02-07T09:10:54.684Z,8.12
2019-02-07T09:11:54.696Z,8.02
2019-02-07T09:12:55.254Z,7.94
2019-02-07T09:13:54.876Z,7.92
2019-02-07T09:14:54.638Z,8.03
2019-02-07T09:15:54.628Z,8.00
2019-02-07T09:16:54.675Z,7.96
2019-02-07T09:17:54.626Z,7.97
2019-02-07T09:18:54.602Z,7.92
2019-02-07T09:19:54.632Z,8.00
2019-02-07T09:20:54.573Z,7.96
2019-02-07T09:21:54.563Z,7.93
2019-02-07T09:22:54.572Z,7.82
2019-02-07T09:23:54.537Z,7.84
2019-02-07T09:24:54.543Z,7.89
2019-02-07T09:25:54.516Z,7.92
2019-02-07T09:26:54.505Z,7.93
2019-02-07T09:27:54.517Z,7.93
2019-02-07T09:28:54.485Z,7.93
2019-02-07T09:29:54.473Z,7.93
2019-02-07T09:30:54.475Z,7.96
2019-02-07T09:31:54.450Z,7.89
2019-02-07T09:32:54.465Z,8.02
2019-02-07T09:33:54.426Z,7.90
2019-02-07T09:34:54.415Z,7.92
2019-02-07T09:36:04.627Z,7.87
2019-02-07T09:36:55.403Z,7.77
2019-02-07T09:37:54.408Z,7.85
2019-02-07T09:38:54.391Z,7.93
2019-02-07T09:39:54.376Z,8.07
2019-02-07T09:40:54.348Z,7.99
2019-02-07T09:41:54.343Z,8.08
2019-02-07T09:42:54.377Z,8.11
2019-02-07T09:43:54.316Z,8.11
2019-02-07T09:44:54.304Z,8.18
2019-02-07T09:45:54.294Z,8.20
2019-02-07T09:46:54.411Z,8.17
2019-02-07T09:47:54.292Z,8.12
2019-02-07T09:48:54.260Z,8.17
2019-02-07T09:49:54.295Z,8.28
2019-02-07T09:50:54.239Z,8.29
2019-02-07T09:51:54.227Z,8.32
2019-02-07T09:52:54.261Z,8.28
2019-02-07T09:53:54.218Z,8.35
2019-02-07T09:54:54.197Z,8.42
2019-02-07T09:55:54.182Z,8.44
2019-02-07T09:56:54.170Z,8.50
2019-02-07T09:57:54.228Z,8.53
2019-02-07T09:58:54.254Z,8.53
2019-02-07T09:59:54.139Z,8.55
2019-02-07T10:00:54.126Z,8.60
2019-02-07T10:01:54.222Z,8.68
2019-02-07T10:02:54.129Z,8.83
2019-02-07T10:03:54.095Z,8.81
2019-02-07T10:04:54.086Z,8.83
2019-02-07T10:05:54.104Z,8.81
2019-02-07T10:06:54.058Z,8.96
2019-02-07T10:07:54.081Z,9.09
2019-02-07T10:08:54.036Z,9.13
2019-02-07T10:09:54.026Z,9.04
2019-02-07T10:10:54.016Z,9.02
2019-02-07T10:11:54.032Z,9.04
2019-02-07T10:12:53.991Z,9.10
2019-02-07T10:13:54.109Z,9.10
2019-02-07T10:14:53.970Z,9.15
2019-02-07T10:15:53.960Z,9.16
2019-02-07T10:16:53.947Z,9.04
2019-02-07T10:17:54.058Z,9.06
2019-02-07T10:18:53.948Z,9.05
2019-02-07T10:19:53.913Z,9.10
2019-02-07T10:20:53.905Z,9.02
2019-02-07T10:21:53.891Z,9.10
2019-02-07T10:22:53.883Z,9.21
2019-02-07T10:23:53.923Z,9.21
2019-02-07T10:24:53.858Z,9.18
2019-02-07T10:25:53.847Z,9.40
2019-02-07T10:26:53.836Z,9.38
2019-02-07T10:27:53.823Z,9.48
2019-02-07T10:28:53.837Z,9.52
2019-02-07T10:29:53.824Z,9.50
2019-02-07T10:30:53.792Z,9.49
2019-02-07T10:31:53.780Z,9.53
2019-02-07T10:32:53.768Z,9.57
2019-02-07T10:33:50.799Z,9.56
2019-02-07T10:34:50.790Z,9.43
2019-02-07T10:35:50.755Z,9.49
2019-02-07T10:36:50.764Z,9.50
2019-02-07T10:37:50.735Z,9.56
2019-02-07T10:38:50.744Z,9.61
2019-02-07T10:39:50.744Z,9.60
2019-02-07T10:40:50.700Z,9.63
2019-02-07T10:41:50.694Z,9.61
2019-02-07T10:42:50.759Z,9.58
2019-02-07T10:43:50.690Z,9.57
2019-02-07T10:44:50.723Z,9.70
2019-02-07T10:45:50.644Z,9.79
2019-02-07T10:46:50.653Z,9.79
2019-02-07T10:47:50.622Z,9.71
2019-02-07T10:48:50.635Z,9.82
2019-02-07T10:49:58.937Z,9.82
2019-02-07T10:50:51.610Z,9.79
2019-02-07T10:51:50.597Z,9.79
2019-02-07T10:52:50.567Z,9.93
2019-02-07T10:53:50.578Z,9.93
2019-02-07T10:54:50.546Z,10.00
2019-02-07T10:55:50.538Z,9.93
2019-02-07T10:56:50.561Z,9.91
2019-02-07T10:57:50.537Z,10.07
2019-02-07T10:58:50.523Z,10.06
2019-02-07T10:59:50.496Z,10.07
2019-02-07T11:00:50.480Z,10.14
2019-02-07T11:01:50.471Z,10.22
2019-02-07T11:02:50.458Z,10.21
2019-02-07T11:03:50.497Z,10.32
2019-02-07T11:04:50.437Z,10.21
2019-02-07T11:05:50.425Z,10.17
2019-02-07T11:06:50.439Z,10.15
2019-02-07T11:07:50.404Z,10.10
2019-02-07T11:08:50.391Z,10.06
2019-02-07T11:09:50.440Z,10.03
2019-02-07T11:10:50.369Z,10.03
2019-02-07T11:11:50.362Z,9.96
2019-02-07T11:12:50.356Z,9.94
2019-02-07T11:13:50.354Z,9.86
2019-02-07T11:14:50.351Z,9.93
2019-02-07T11:15:50.337Z,10.04
2019-02-07T11:16:50.304Z,10.12
2019-02-07T11:17:50.292Z,10.03
2019-02-07T11:18:55.603Z,9.86
2019-02-07T11:19:51.292Z,9.82
2019-02-07T11:20:50.258Z,9.82
2019-02-07T11:21:50.268Z,9.79
2019-02-07T11:22:50.235Z,9.78
2019-02-07T11:23:50.224Z,9.78
2019-02-07T11:24:50.241Z,9.91
2019-02-07T11:25:50.205Z,10.00
2019-02-07T11:26:50.193Z,10.01
2019-02-07T11:27:50.203Z,10.15
2019-02-07T11:28:50.170Z,10.07
2019-02-07T11:29:50.182Z,10.01
2019-02-07T11:30:50.146Z,10.14
2019-02-07T11:31:50.203Z,10.03
2019-02-07T11:32:50.228Z,10.06
2019-02-07T11:33:50.139Z,10.17
2019-02-07T11:34:50.136Z,10.06
2019-02-07T11:35:50.091Z,10.15
2019-02-07T11:36:54.035Z,10.07
2019-02-07T11:37:50.068Z,10.17
2019-02-07T11:38:50.057Z,10.10
2019-02-07T11:39:50.101Z,10.04
2019-02-07T11:40:50.034Z,10.14
2019-02-07T11:41:50.023Z,10.18
2019-02-07T11:42:50.035Z,10.22
2019-02-07T11:43:50.000Z,10.26
2019-02-07T11:44:50.734Z,10.24
2019-02-07T11:45:50.005Z,10.21
2019-02-07T11:46:49.970Z,10.28
2019-02-07T11:47:49.958Z,10.33
2019-02-07T11:48:49.952Z,10.24
2019-02-07T11:49:49.957Z,10.17
2019-02-07T11:50:49.924Z,10.32
2019-02-07T11:51:49.941Z,10.22
2019-02-07T11:52:49.902Z,10.36
2019-02-07T11:53:49.891Z,10.30
2019-02-07T11:54:49.901Z,10.24
2019-02-07T11:55:49.868Z,10.24
2019-02-07T11:56:49.858Z,10.24
2019-02-07T11:57:49.867Z,10.24
2019-02-07T11:58:49.860Z,10.22
2019-02-07T11:59:49.851Z,10.28
2019-02-07T12:00:50.041Z,10.19
2019-02-07T12:01:49.802Z,10.22
2019-02-07T12:02:49.799Z,10.28
2019-02-07T12:03:49.827Z,10.26
2019-02-07T12:04:49.769Z,10.33
2019-02-07T12:05:49.759Z,10.32
2019-02-07T12:06:49.754Z,10.32
2019-02-07T12:07:49.736Z,10.24
2019-02-07T12:08:49.746Z,10.28
2019-02-07T12:09:49.728Z,10.26
2019-02-07T12:10:49.725Z,10.40
2019-02-07T12:11:49.693Z,10.51
2019-02-07T12:12:49.678Z,10.59
2019-02-07T12:13:49.668Z,10.76
2019-02-07T12:14:49.658Z,10.68
2019-02-07T12:15:49.696Z,10.62
2019-02-07T12:16:49.635Z,10.59
2019-02-07T12:17:49.624Z,10.74
2019-02-07T12:18:49.614Z,10.65
2019-02-07T12:19:49.603Z,10.65
2019-02-07T12:20:49.614Z,10.71
2019-02-07T12:21:49.624Z,10.71
2019-02-07T12:22:49.573Z,10.52
2019-02-07T12:23:49.558Z,10.42
2019-02-07T12:24:49.562Z,10.42
2019-02-07T12:25:49.559Z,10.42
2019-02-07T12:26:49.527Z,10.43
2019-02-07T12:27:49.548Z,10.39
2019-02-07T12:28:49.503Z,10.26
2019-02-07T12:29:49.492Z,10.34
2019-02-07T12:30:49.503Z,10.33
2019-02-07T12:31:49.471Z,10.33
2019-02-07T12:32:49.510Z,10.25
2019-02-07T12:33:49.446Z,10.25
2019-02-07T12:34:49.436Z,10.26
2019-02-07T12:35:49.474Z,10.21
2019-02-07T12:36:49.413Z,10.15
2019-02-07T12:37:49.405Z,10.17
2019-02-07T12:38:49.416Z,10.18
2019-02-07T12:39:49.381Z,10.22
2019-02-07T12:40:49.391Z,10.28
2019-02-07T12:41:49.362Z,10.24
2019-02-07T12:42:49.345Z,10.15
2019-02-07T12:43:49.368Z,10.26
2019-02-07T12:44:49.350Z,10.28
2019-02-07T12:45:49.314Z,10.24
2019-02-07T12:46:49.326Z,10.24
2019-02-07T12:47:49.301Z,10.18
2019-02-07T12:48:49.279Z,10.24
2019-02-07T12:49:49.266Z,10.21
2019-02-07T12:50:49.288Z,10.19
2019-02-07T12:51:49.267Z,10.22
2019-02-07T12:52:49.233Z,10.24
2019-02-07T12:53:49.229Z,10.32
2019-02-07T12:54:49.288Z,10.30
2019-02-07T12:55:52.378Z,10.34
2019-02-07T12:56:49.212Z,10.40
2019-02-07T12:57:49.197Z,10.34
2019-02-07T12:58:49.167Z,10.36
2019-02-07T12:59:49.154Z,10.33
2019-02-07T13:00:49.167Z,10.42
2019-02-07T13:01:49.156Z,10.42
2019-02-07T13:02:49.123Z,10.37
2019-02-07T13:03:49.111Z,10.26
2019-02-07T13:04:49.646Z,10.36
2019-02-07T13:05:49.113Z,10.36
2019-02-07T13:06:49.101Z,10.34
2019-02-07T13:07:49.070Z,10.32
2019-02-07T13:08:49.055Z,10.34
2019-02-07T13:09:49.047Z,10.36
2019-02-07T13:10:49.035Z,10.28
2019-02-07T13:11:49.073Z,10.25
2019-02-07T13:12:49.009Z,10.33
2019-02-07T13:13:48.999Z,10.32